^^
Saratoga-Weather Station Historical Data
Daily Summary for February 11, 2021 Units:  Metric    English   Both
Daily Weekly Monthly Yearly Custom
  High: Low: Average:
Temperature: 15 °C 10.2 °C 11.9 °C
Dew Point: 12 °C 9.3 °C 10.4 °C
Humidity: 96% 80% 91%
Wind Speed: 7.9km/h 0km/h 0.9km/h
Wind Gust: 12.9km/h - -
Wind- - WSW
Pressure: 1008.8 hPa 1006.4 hPa -
Precipitation: 0.0 mm    
Historical Graphs
 
 
Tabular Data for February 11, 2021
Time Temperature Dew Point Pressure Wind Wind Speed Wind Gust Humidity Rainfall Rate (Hourly) solar
00:03 12.4 °C 10.8 °C 1008.8 hPa NNW 1.4 km/h 1.6 km/h 90% 0.0 mm 0 W/m2
00:08 12.4 °C 10.8 °C 1008.8 hPa Calm     90% 0.0 mm 0 W/m2
00:13 12.4 °C 10.8 °C 1008.8 hPa Calm     90% 0.0 mm 0 W/m2
00:18 12.4 °C 10.8 °C 1008.8 hPa Calm     90% 0.0 mm 0 W/m2
00:23 12.4 °C 10.8 °C 1008.5 hPa Calm   3.2 km/h 90% 0.0 mm 0 W/m2
00:28 12.3 °C 10.7 °C 1008.5 hPa Calm     90% 0.0 mm 0 W/m2
00:33 12.3 °C 10.7 °C 1008.5 hPa Calm   3.2 km/h 90% 0.0 mm 0 W/m2
00:38 12.3 °C 10.7 °C 1008.5 hPa Calm     90% 0.0 mm 0 W/m2
00:43 12.3 °C 10.7 °C 1008.5 hPa Calm     90% 0.0 mm 0 W/m2
00:48 12.2 °C 10.8 °C 1008.5 hPa Calm     91% 0.0 mm 0 W/m2
00:53 12.2 °C 10.8 °C 1008.5 hPa Calm   1.6 km/h 91% 0.0 mm 0 W/m2
00:58 12.2 °C 10.8 °C 1008.5 hPa Calm     91% 0.0 mm 0 W/m2
01:03 12.1 °C 10.7 °C 1008.5 hPa Calm   1.6 km/h 91% 0.0 mm 0 W/m2
01:09 12.1 °C 10.7 °C 1008.5 hPa Calm     91% 0.0 mm 0 W/m2
01:14 11.9 °C 10.5 °C 1008.5 hPa Calm     91% 0.0 mm 0 W/m2
01:19 11.8 °C 10.4 °C 1008.5 hPa Calm     91% 0.0 mm 0 W/m2
01:24 11.8 °C 10.4 °C 1008.5 hPa Calm     91% 0.0 mm 0 W/m2
01:29 11.7 °C 10.4 °C 1008.5 hPa Calm     92% 0.0 mm 0 W/m2
01:34 11.6 °C 10.3 °C 1008.5 hPa ESE 1.4 km/h 3.2 km/h 92% 0.0 mm 0 W/m2
01:39 11.6 °C 10.3 °C 1008.5 hPa ESE 1.4 km/h 4.8 km/h 92% 0.0 mm 0 W/m2
01:44 11.6 °C 10.3 °C 1008.5 hPa ESE 3.2 km/h 3.2 km/h 92% 0.0 mm 0 W/m2
01:49 11.6 °C 10.3 °C 1008.5 hPa Calm   3.2 km/h 92% 0.0 mm 0 W/m2
01:54 11.6 °C 10.5 °C 1008.5 hPa Calm     93% 0.0 mm 0 W/m2
01:59 11.6 °C 10.3 °C 1008.5 hPa Calm   3.2 km/h 92% 0.0 mm 0 W/m2
02:04 11.5 °C 10.2 °C 1008.5 hPa Calm     92% 0.0 mm 0 W/m2
02:09 11.4 °C 10.1 °C 1008.1 hPa Calm     92% 0.0 mm 0 W/m2
02:14 11.3 °C 10 °C 1008.5 hPa Calm     92% 0.0 mm 0 W/m2
02:19 11.2 °C 9.9 °C 1008.5 hPa Calm     92% 0.0 mm 0 W/m2
02:24 11.1 °C 9.8 °C 1008.5 hPa Calm     92% 0.0 mm 0 W/m2
02:29 11 °C 9.9 °C 1008.1 hPa Calm     93% 0.0 mm 0 W/m2
02:34 10.9 °C 9.8 °C 1008.1 hPa Calm     93% 0.0 mm 0 W/m2
02:39 10.9 °C 9.8 °C 1008.1 hPa Calm     93% 0.0 mm 0 W/m2
02:44 10.8 °C 9.7 °C 1008.1 hPa Calm     93% 0.0 mm 0 W/m2
02:49 10.7 °C 9.6 °C 1008.1 hPa Calm     93% 0.0 mm 0 W/m2
02:54 10.7 °C 9.6 °C 1008.1 hPa Calm     93% 0.0 mm 0 W/m2
02:59 10.6 °C 9.5 °C 1008.1 hPa Calm     93% 0.0 mm 0 W/m2
03:04 10.6 °C 9.5 °C 1008.1 hPa Calm     93% 0.0 mm 0 W/m2
03:09 10.5 °C 9.4 °C 1008.1 hPa Calm     93% 0.0 mm 0 W/m2
03:14 10.5 °C 9.6 °C 1008.1 hPa Calm     94% 0.0 mm 0 W/m2
03:19 10.5 °C 9.6 °C 1008.1 hPa Calm     94% 0.0 mm 0 W/m2
03:24 10.4 °C 9.5 °C 1008.1 hPa Calm     94% 0.0 mm 0 W/m2
03:29 10.4 °C 9.5 °C 1008.1 hPa Calm     94% 0.0 mm 0 W/m2
03:34 10.4 °C 9.5 °C 1008.1 hPa Calm     94% 0.0 mm 0 W/m2
03:39 10.4 °C 9.5 °C 1008.1 hPa Calm     94% 0.0 mm 0 W/m2
03:44 10.4 °C 9.5 °C 1007.8 hPa Calm     94% 0.0 mm 0 W/m2
03:49 10.4 °C 9.5 °C 1007.8 hPa Calm     94% 0.0 mm 0 W/m2
03:54 10.4 °C 9.5 °C 1008.1 hPa Calm     94% 0.0 mm 0 W/m2
03:59 10.4 °C 9.5 °C 1008.1 hPa Calm     94% 0.0 mm 0 W/m2
04:04 10.3 °C 9.4 °C 1008.1 hPa Calm     94% 0.0 mm 0 W/m2
04:09 10.3 °C 9.4 °C 1008.1 hPa Calm     94% 0.0 mm 0 W/m2
04:14 10.3 °C 9.4 °C 1007.8 hPa Calm     94% 0.0 mm 0 W/m2
04:19 10.2 °C 9.3 °C 1007.8 hPa Calm     94% 0.0 mm 0 W/m2
04:24 10.2 °C 9.3 °C 1007.8 hPa Calm     94% 0.0 mm 0 W/m2
04:29 10.2 °C 9.3 °C 1008.1 hPa Calm     94% 0.0 mm 0 W/m2
04:34 10.2 °C 9.3 °C 1008.1 hPa Calm     94% 0.0 mm 0 W/m2
04:39 10.2 °C 9.4 °C 1008.1 hPa Calm     95% 0.0 mm 0 W/m2
04:44 10.2 °C 9.4 °C 1008.1 hPa Calm     95% 0.0 mm 0 W/m2
04:49 10.2 °C 9.4 °C 1008.1 hPa Calm     95% 0.0 mm 0 W/m2
04:54 10.2 °C 9.4 °C 1008.1 hPa Calm     95% 0.0 mm 0 W/m2
04:59 10.2 °C 9.4 °C 1008.1 hPa Calm     95% 0.0 mm 0 W/m2
05:04 10.2 °C 9.4 °C 1007.8 hPa Calm     95% 0.0 mm 0 W/m2
05:09 10.2 °C 9.4 °C 1007.8 hPa Calm     95% 0.0 mm 0 W/m2
05:14 10.2 °C 9.4 °C 1007.8 hPa Calm     95% 0.0 mm 0 W/m2
05:19 10.2 °C 9.4 °C 1007.8 hPa Calm     95% 0.0 mm 0 W/m2
05:24 10.2 °C 9.4 °C 1007.8 hPa Calm     95% 0.0 mm 0 W/m2
05:29 10.3 °C 9.5 °C 1007.8 hPa Calm     95% 0.0 mm 0 W/m2
05:34 10.3 °C 9.5 °C 1008.1 hPa Calm     95% 0.0 mm 0 W/m2
05:39 10.3 °C 9.5 °C 1007.8 hPa Calm     95% 0.0 mm 0 W/m2
05:44 10.3 °C 9.5 °C 1007.8 hPa Calm     95% 0.0 mm 0 W/m2
05:49 10.3 °C 9.5 °C 1007.5 hPa Calm     95% 0.0 mm 0 W/m2
05:54 10.3 °C 9.5 °C 1007.5 hPa South 3.2 km/h 3.2 km/h 95% 0.0 mm 0 W/m2
05:59 10.3 °C 9.5 °C 1007.5 hPa Calm   1.6 km/h 95% 0.0 mm 0 W/m2
06:04 10.3 °C 9.5 °C 1007.5 hPa Calm     95% 0.0 mm 7 W/m2
06:09 10.3 °C 9.5 °C 1007.5 hPa Calm   1.6 km/h 95% 0.0 mm 12 W/m2
06:14 10.3 °C 9.5 °C 1007.5 hPa Calm     95% 0.0 mm 23 W/m2
06:19 10.3 °C 9.5 °C 1007.1 hPa Calm     95% 0.0 mm 39 W/m2
06:24 10.3 °C 9.5 °C 1007.1 hPa Calm     95% 0.0 mm 46 W/m2
06:29 10.3 °C 9.5 °C 1007.1 hPa Calm     95% 0.0 mm 65 W/m2
06:35 10.3 °C 9.5 °C 1007.1 hPa Calm     95% 0.0 mm 81 W/m2
06:40 10.4 °C 9.8 °C 1007.1 hPa Calm     96% 0.0 mm 70 W/m2
06:45 10.6 °C 10 °C 1007.1 hPa Calm     96% 0.0 mm 54 W/m2
06:50 10.6 °C 10 °C 1007.1 hPa Calm     96% 0.0 mm 51 W/m2
06:55 10.7 °C 10.1 °C 1007.1 hPa Calm   1.6 km/h 96% 0.0 mm 46 W/m2
07:00 10.8 °C 10.2 °C 1007.1 hPa South 1.4 km/h 3.2 km/h 96% 0.0 mm 42 W/m2
07:05 10.8 °C 10.2 °C 1007.1 hPa Calm     96% 0.0 mm 62 W/m2
07:10 10.8 °C 10.2 °C 1007.1 hPa Calm   3.2 km/h 96% 0.0 mm 49 W/m2
07:15 10.9 °C 10.3 °C 1007.1 hPa Calm     96% 0.0 mm 49 W/m2
07:20 10.9 °C 10.3 °C 1007.1 hPa Calm     96% 0.0 mm 46 W/m2
07:25 10.9 °C 10.3 °C 1007.1 hPa Calm     96% 0.0 mm 58 W/m2
07:30 11 °C 10.4 °C 1007.1 hPa Calm     96% 0.0 mm 77 W/m2
07:35 11.1 °C 10.3 °C 1007.1 hPa Calm     95% 0.0 mm 84 W/m2
07:40 11.2 °C 10.6 °C 1007.1 hPa Calm     96% 0.0 mm 79 W/m2
07:45 11.2 °C 10.4 °C 1007.1 hPa Calm     95% 0.0 mm 60 W/m2
07:50 11.3 °C 10.5 °C 1007.1 hPa Calm   3.2 km/h 95% 0.0 mm 60 W/m2
07:55 11.4 °C 10.6 °C 1007.1 hPa NE 1.4 km/h 3.2 km/h 95% 0.0 mm 72 W/m2
08:00 11.4 °C 10.6 °C 1007.1 hPa Calm     95% 0.0 mm 86 W/m2
08:05 11.4 °C 10.5 °C 1007.1 hPa Calm     94% 0.0 mm 77 W/m2
08:10 11.6 °C 10.7 °C 1007.1 hPa Calm     94% 0.0 mm 76 W/m2
08:15 11.6 °C 10.7 °C 1007.1 hPa Calm     94% 0.0 mm 86 W/m2
08:20 11.7 °C 10.8 °C 1007.5 hPa Calm     94% 0.0 mm 91 W/m2
08:25 11.8 °C 10.7 °C 1007.5 hPa NE 1.4 km/h 1.6 km/h 93% 0.0 mm 95 W/m2
08:30 11.8 °C 10.7 °C 1007.5 hPa Calm   1.6 km/h 93% 0.0 mm 100 W/m2
08:35 11.9 °C 10.6 °C 1007.5 hPa Calm   3.2 km/h 92% 0.0 mm 125 W/m2
08:40 12.2 °C 10.9 °C 1007.5 hPa NE 1.4 km/h 4.8 km/h 92% 0.0 mm 132 W/m2
08:45 12.3 °C 11 °C 1007.5 hPa Calm   3.2 km/h 92% 0.0 mm 137 W/m2
08:50 12.3 °C 10.9 °C 1007.5 hPa ENE 1.4 km/h 3.2 km/h 91% 0.0 mm 116 W/m2
08:55 12.4 °C 11 °C 1007.5 hPa Calm   3.2 km/h 91% 0.0 mm 105 W/m2
09:00 12.4 °C 11 °C 1007.1 hPa East 4.7 km/h 4.8 km/h 91% 0.0 mm 174 W/m2
09:05 12.5 °C 11.1 °C 1007.5 hPa Calm   1.6 km/h 91% 0.0 mm 116 W/m2
09:10 12.5 °C 10.9 °C 1007.1 hPa Calm   4.8 km/h 90% 0.0 mm 98 W/m2
09:15 12.5 °C 10.9 °C 1007.1 hPa NNW 3.2 km/h 3.2 km/h 90% 0.0 mm 116 W/m2
09:20 12.6 °C 11 °C 1007.1 hPa Calm   1.6 km/h 90% 0.0 mm 158 W/m2
09:25 12.7 °C 10.9 °C 1007.1 hPa WNW 1.4 km/h 4.8 km/h 89% 0.0 mm 172 W/m2
09:30 12.7 °C 10.9 °C 1007.1 hPa North 3.2 km/h 4.8 km/h 89% 0.0 mm 244 W/m2
09:35 12.9 °C 11.1 °C 1007.1 hPa NNW 1.4 km/h 3.2 km/h 89% 0.0 mm 229 W/m2
09:40 13.1 °C 11.2 °C 1007.1 hPa West 1.4 km/h 6.4 km/h 88% 0.0 mm 262 W/m2
09:45 13.2 °C 11.1 °C 1007.1 hPa Calm   4.8 km/h 87% 0.0 mm 239 W/m2
09:50 13.4 °C 11.3 °C 1007.1 hPa West 3.2 km/h 4.8 km/h 87% 0.0 mm 220 W/m2
09:55 13.4 °C 11.1 °C 1007.1 hPa WNW 4.7 km/h 6.4 km/h 86% 0.0 mm 185 W/m2
10:00 13.6 °C 11.3 °C 1006.8 hPa WNW 3.2 km/h 4.8 km/h 86% 0.0 mm 244 W/m2
10:05 13.7 °C 11.2 °C 1006.8 hPa WNW 4.7 km/h 9.7 km/h 85% 0.0 mm 267 W/m2
10:10 13.7 °C 11 °C 1006.8 hPa WNW 1.4 km/h 6.4 km/h 84% 0.0 mm 241 W/m2
10:15 13.8 °C 11.1 °C 1006.4 hPa NNW 3.2 km/h 11.3 km/h 84% 0.0 mm 271 W/m2
10:20 13.9 °C 11.1 °C 1006.4 hPa West 6.4 km/h 6.4 km/h 83% 0.0 mm 269 W/m2
10:25 14 °C 11.2 °C 1006.8 hPa West 3.2 km/h 6.4 km/h 83% 0.0 mm 462 W/m2
10:30 14.2 °C 11.2 °C 1006.8 hPa West 6.4 km/h 12.9 km/h 82% 0.0 mm 490 W/m2
10:35 14.3 °C 11.3 °C 1006.8 hPa NW 1.4 km/h 11.3 km/h 82% 0.0 mm 315 W/m2
10:40 14.4 °C 11.4 °C 1006.8 hPa West 4.7 km/h 6.4 km/h 82% 0.0 mm 443 W/m2
10:45 14.6 °C 11.2 °C 1006.8 hPa NW 3.2 km/h 4.8 km/h 80% 0.0 mm 367 W/m2
10:50 14.7 °C 11.3 °C 1007.1 hPa NW 1.4 km/h 3.2 km/h 80% 0.0 mm 332 W/m2
10:55 14.8 °C 11.4 °C 1007.1 hPa NW 1.4 km/h 4.8 km/h 80% 0.0 mm 225 W/m2
11:00 14.8 °C 11.4 °C 1006.8 hPa West 3.2 km/h 3.2 km/h 80% 0.0 mm 225 W/m2
11:05 14.8 °C 11.4 °C 1007.1 hPa West 1.4 km/h 6.4 km/h 80% 0.0 mm 241 W/m2
11:10 14.9 °C 11.5 °C 1006.8 hPa WNW 1.4 km/h 6.4 km/h 80% 0.0 mm 250 W/m2
11:15 14.9 °C 11.7 °C 1006.8 hPa NW 1.4 km/h 3.2 km/h 81% 0.0 mm 251 W/m2
11:20 15 °C 12 °C 1006.8 hPa West 4.7 km/h 6.4 km/h 82% 0.0 mm 271 W/m2
11:25 14.9 °C 11.5 °C 1006.8 hPa SW 6.4 km/h 8 km/h 80% 0.0 mm 218 W/m2
11:30 14.8 °C 11.6 °C 1006.8 hPa West 1.4 km/h 6.4 km/h 81% 0.0 mm 171 W/m2
11:35 14.7 °C 11.7 °C 1006.8 hPa WSW 1.4 km/h 6.4 km/h 82% 0.0 mm 128 W/m2
11:40 14.5 °C 11.6 °C 1006.8 hPa West 6.4 km/h 6.4 km/h 83% 0.0 mm 83 W/m2
11:45 14.3 °C 11.6 °C 1007.1 hPa NW 7.9 km/h 11.3 km/h 84% 0.0 mm 69 W/m2
11:50 14.1 °C 11.6 °C 1007.1 hPa West 3.2 km/h 9.7 km/h 85% 0.0 mm 69 W/m2
11:55 13.9 °C 11.6 °C 1007.1 hPa NW 4.7 km/h 9.7 km/h 86% 0.0 mm 69 W/m2
12:01 13.8 °C 11.5 °C 1007.1 hPa WSW 3.2 km/h 4.8 km/h 86% 0.0 mm 63 W/m2
12:06 13.8 °C 11.7 °C 1007.1 hPa WNW 3.2 km/h 4.8 km/h 87% 0.0 mm 63 W/m2
12:11 13.8 °C 11.7 °C 1007.5 hPa West 1.4 km/h 8 km/h 87% 0.0 mm 69 W/m2
12:16 13.8 °C 11.7 °C 1007.5 hPa WNW 3.2 km/h 4.8 km/h 87% 0.0 mm 69 W/m2
12:21 13.8 °C 11.7 °C 1007.5 hPa West 1.4 km/h 3.2 km/h 87% 0.0 mm 69 W/m2
12:26 13.8 °C 11.7 °C 1007.5 hPa Calm     87% 0.0 mm 58 W/m2
12:31 13.8 °C 11.7 °C 1007.5 hPa WNW 1.4 km/h 6.4 km/h 87% 0.0 mm 62 W/m2
12:36 13.8 °C 11.8 °C 1007.5 hPa West 3.2 km/h 6.4 km/h 88% 0.0 mm 79 W/m2
12:41 13.8 °C 11.8 °C 1007.5 hPa West 1.4 km/h 3.2 km/h 88% 0.0 mm 91 W/m2
Juneau County Weather
Compliments of Weather Underground - 4 mb